Time;durP1;ratioP1;P1;durP2;ratioP2;P2;SDS_P1;SDS_P2;PMS_P1;PMS_P2;Temp;Humidity;BMP_temperature;BMP_pressure;BME280_temperature;BME280_humidity;BME280_pressure;Samples;Min_cycle;Max_cycle;Signal;HPM_P1;HPM_P2
2023/02/14 00:02:05;;;;;;;87.50;44.38;;;0.50;99.90;;;;;;6187713;23;20097;-75
2023/02/14 00:04:31;;;;;;;126.03;53.63;;;0.40;99.90;;;;;;6187566;23;20040;-75
2023/02/14 00:06:57;;;;;;;119.20;47.20;;;0.40;99.90;;;;;;6187602;23;20132;-75
2023/02/14 00:09:23;;;;;;;119.18;47.63;;;0.40;99.90;;;;;;6185727;23;20136;-75
2023/02/14 00:11:48;;;;;;;97.93;44.88;;;0.30;99.90;;;;;;6185907;23;20021;-75
2023/02/14 00:17:00;;;;;;;103.22;43.63;;;0.10;99.90;;;;;;6186036;23;20017;-75
2023/02/14 00:19:26;;;;;;;110.53;43.03;;;0.00;99.90;;;;;;6186159;23;20023;-75
2023/02/14 00:21:52;;;;;;;62.38;33.03;;;0.10;99.90;;;;;;6185719;23;20013;-75
2023/02/14 00:24:23;;;;;;;48.17;30.70;;;0.10;99.90;;;;;;6160957;23;20076;-75
2023/02/14 00:26:50;;;;;;;59.15;36.05;;;0.20;99.90;;;;;;6186079;23;20013;-75
2023/02/14 00:29:19;;;;;;;47.17;29.75;;;0.10;99.90;;;;;;6185137;23;20031;-75
2023/02/14 00:31:45;;;;;;;67.10;40.23;;;0.00;99.90;;;;;;6185599;23;20021;-75
2023/02/14 00:34:12;;;;;;;69.53;39.97;;;0.00;99.90;;;;;;6160501;23;20272;-75
2023/02/14 00:36:38;;;;;;;72.03;40.97;;;-0.10;99.90;;;;;;6185419;23;20013;-75
2023/02/14 00:39:05;;;;;;;65.15;36.70;;;0.00;99.90;;;;;;6185466;23;20088;-75
2023/02/14 00:41:31;;;;;;;67.72;35.90;;;0.20;99.90;;;;;;6160627;23;20064;-75
2023/02/14 00:43:57;;;;;;;60.25;31.98;;;0.10;99.90;;;;;;6160548;23;20103;-75
2023/02/14 00:46:24;;;;;;;88.25;33.13;;;0.30;99.90;;;;;;6185609;23;20016;-75
2023/02/14 00:48:50;;;;;;;96.10;34.42;;;0.40;99.90;;;;;;6185436;23;20024;-75
2023/02/14 00:51:17;;;;;;;97.72;31.55;;;0.50;99.90;;;;;;6186734;23;20016;-75
2023/02/14 00:53:44;;;;;;;65.18;32.75;;;0.50;99.90;;;;;;6160473;23;20017;-75
2023/02/14 00:56:10;;;;;;;51.38;28.63;;;0.50;99.90;;;;;;6185303;23;20016;-75
2023/02/14 00:58:35;;;;;;;52.13;29.33;;;0.50;99.90;;;;;;6160361;23;20334;-75
2023/02/14 01:01:02;;;;;;;65.63;33.95;;;0.40;99.90;;;;;;6160535;23;20020;-75
2023/02/14 01:03:27;;;;;;;59.50;33.22;;;0.40;99.90;;;;;;6186227;23;20513;-75
2023/02/14 01:05:53;;;;;;;65.68;32.95;;;0.30;99.90;;;;;;6186957;23;20048;-75
2023/02/14 01:08:19;;;;;;;58.03;33.00;;;0.30;99.90;;;;;;6185082;23;20017;-75
2023/02/14 01:10:45;;;;;;;69.95;36.42;;;0.30;99.90;;;;;;6184983;23;20013;-75
2023/02/14 01:13:12;;;;;;;61.10;35.35;;;0.20;99.90;;;;;;6185239;23;20316;-75
2023/02/14 01:15:39;;;;;;;48.10;24.88;;;0.20;99.90;;;;;;6187117;23;20051;-75
2023/02/14 01:18:05;;;;;;;42.55;27.27;;;0.30;99.90;;;;;;6185043;23;20009;-75
2023/02/14 01:20:31;;;;;;;48.13;27.77;;;0.40;99.90;;;;;;6160323;23;20017;-75
2023/02/14 01:22:57;;;;;;;54.65;30.58;;;0.40;99.90;;;;;;6159841;23;20094;-75
2023/02/14 01:25:23;;;;;;;57.97;32.00;;;0.30;99.90;;;;;;6160221;23;20017;-75
2023/02/14 01:27:49;;;;;;;50.63;28.52;;;0.30;99.90;;;;;;6184997;23;20071;-75
2023/02/14 01:30:15;;;;;;;43.30;25.13;;;0.30;99.90;;;;;;6184931;23;20439;-75
2023/02/14 01:32:41;;;;;;;28.10;19.75;;;0.30;99.90;;;;;;6185463;23;20139;-75
2023/02/14 01:35:08;;;;;;;29.48;19.80;;;0.30;99.90;;;;;;6160095;23;20013;-75
2023/02/14 01:37:34;;;;;;;34.28;22.13;;;0.20;99.90;;;;;;6160007;23;20017;-75
2023/02/14 01:40:01;;;;;;;37.22;22.35;;;0.20;99.90;;;;;;6184867;23;20060;-75
2023/02/14 01:42:27;;;;;;;32.75;20.17;;;0.20;99.90;;;;;;6186696;23;20009;-75
2023/02/14 01:44:57;;;;;;;39.55;22.45;;;0.10;99.90;;;;;;6185237;23;20071;-75
2023/02/14 01:47:27;;;;;;;67.40;25.20;;;0.10;99.90;;;;;;6184762;23;20013;-75
2023/02/14 01:49:58;;;;;;;51.47;27.35;;;0.30;99.90;;;;;;6159458;23;20020;-75
2023/02/14 01:52:47;;;;;;;62.17;30.27;;;0.50;99.90;;;;;;6184728;23;20012;-75
2023/02/14 01:55:20;;;;;;;71.47;32.15;;;0.50;99.90;;;;;;6159943;23;20013;-75
2023/02/14 01:57:54;;;;;;;74.65;33.15;;;0.60;99.90;;;;;;6186615;23;20009;-75
2023/02/14 02:03:06;;;;;;;113.90;32.78;;;0.80;99.90;;;;;;6186607;23;20342;-75
2023/02/14 02:05:34;;;;;;;63.35;32.38;;;0.70;99.90;;;;;;6159867;23;20013;-75
2023/02/14 02:08:00;;;;;;;95.45;32.75;;;0.70;99.90;;;;;;6186493;23;20017;-75
2023/02/14 02:10:27;;;;;;;87.25;30.52;;;0.80;99.90;;;;;;6186454;23;20013;-75
2023/02/14 02:12:52;;;;;;;75.68;31.25;;;0.60;99.90;;;;;;6186627;23;20020;-75
2023/02/14 02:15:20;;;;;;;81.68;27.25;;;0.70;99.90;;;;;;6186281;23;20017;-75
2023/02/14 02:17:58;;;;;;;150.68;29.17;;;0.50;99.90;;;;;;6189971;23;20045;-76
2023/02/14 02:20:51;;;;;;;141.95;25.98;;;0.60;99.90;;;;;;6188500;23;20098;-76
2023/02/14 02:23:32;;;;;;;160.90;29.08;;;0.60;99.90;;;;;;6187955;23;20009;-76
2023/02/14 02:26:16;;;;;;;141.43;28.88;;;0.50;99.90;;;;;;6163253;23;20016;-76
2023/02/14 02:29:06;;;;;;;60.83;26.88;;;0.40;99.90;;;;;;6188390;23;20083;-76
2023/02/14 02:31:37;;;;;;;118.15;30.35;;;0.30;99.90;;;;;;6187835;23;20028;-75
2023/02/14 02:34:32;;;;;;;147.80;29.33;;;0.10;99.90;;;;;;6187839;23;20069;-76
2023/02/14 02:37:16;;;;;;;132.48;28.45;;;0.10;99.90;;;;;;6188288;23;20013;-76
2023/02/14 02:39:57;;;;;;;55.78;27.33;;;0.10;99.90;;;;;;6187815;23;20024;-76
2023/02/14 02:43:04;;;;;;;44.42;26.27;;;0.20;99.90;;;;;;6163304;23;20092;-76
2023/02/14 02:46:46;;;;;;;56.97;31.70;;;0.20;99.90;;;;;;6168444;23;20342;-76
2023/02/14 02:48:44;;;;;;;51.63;28.98;;;0.30;99.90;;;;;;6187658;23;20517;-76
2023/02/14 02:54:13;;;;;;;90.90;37.45;;;0.00;99.90;;;;;;6189667;23;20021;-75
2023/02/14 02:56:48;;;;;;;63.75;34.22;;;0.10;99.90;;;;;;6187810;23;20016;-75
2023/02/14 02:59:28;;;;;;;50.47;28.35;;;-0.10;99.90;;;;;;6187887;23;20319;-75
2023/02/14 03:02:14;;;;;;;50.75;28.52;;;0.00;99.90;;;;;;6163189;23;20403;-76
2023/02/14 03:04:54;;;;;;;47.83;25.23;;;0.10;99.90;;;;;;6189707;23;20020;-76
2023/02/14 03:07:35;;;;;;;53.78;27.73;;;0.20;99.90;;;;;;6188243;23;20009;-76
2023/02/14 03:10:16;;;;;;;58.60;29.85;;;0.40;99.90;;;;;;6162805;23;20013;-76
2023/02/14 03:13:12;;;;;;;71.68;31.73;;;0.50;99.90;;;;;;6162999;23;20017;-76
2023/02/14 03:15:49;;;;;;;64.47;30.23;;;0.80;99.90;;;;;;6187989;23;20513;-76
2023/02/14 03:18:40;;;;;;;59.60;28.98;;;0.90;99.90;;;;;;6187706;23;20040;-76
2023/02/14 03:21:25;;;;;;;;;;;1.00;99.90;;;;;;6163363;23;20096;-76
2023/02/14 03:24:04;;;;;;;71.43;31.10;;;1.30;99.90;;;;;;6186871;23;19947;-76
2023/02/14 03:26:46;;;;;;;65.65;31.50;;;1.40;99.90;;;;;;6188527;23;20013;-76
2023/02/14 03:29:26;;;;;;;70.05;32.33;;;1.50;99.90;;;;;;6185945;23;20013;-76
2023/02/14 03:32:01;;;;;;;68.75;31.25;;;1.50;99.90;;;;;;6186342;23;20047;-76
2023/02/14 03:34:46;;;;;;;62.45;27.73;;;1.50;99.90;;;;;;6161392;23;20461;-76
2023/02/14 03:37:30;;;;;;;95.32;27.75;;;1.40;99.90;;;;;;6188056;23;20135;-76
2023/02/14 03:40:15;;;;;;;82.80;26.33;;;1.30;99.90;;;;;;6161470;23;20020;-76
2023/02/14 03:43:06;;;;;;;58.35;26.52;;;1.20;99.90;;;;;;6188143;23;20020;-76
2023/02/14 03:45:54;;;;;;;52.03;24.55;;;1.30;99.90;;;;;;6188089;23;20095;-75
2023/02/14 03:48:22;;;;;;;59.47;22.73;;;1.20;99.90;;;;;;6186715;23;20505;-75
2023/02/14 03:50:50;;;;;;;76.82;23.92;;;1.10;99.90;;;;;;6160906;23;20009;-75
2023/02/14 03:53:21;;;;;;;98.50;23.23;;;1.00;99.90;;;;;;6161117;23;20329;-76
2023/02/14 03:56:02;;;;;;;73.80;23.08;;;1.10;99.90;;;;;;6187211;23;20423;-75
2023/02/14 03:58:33;;;;;;;64.55;23.65;;;0.80;99.90;;;;;;6185824;23;20012;-75
2023/02/14 04:01:24;;;;;;;89.22;23.55;;;0.70;99.90;;;;;;6187024;23;20369;-76
2023/02/14 04:03:52;;;;;;;89.05;22.80;;;0.60;99.90;;;;;;6141699;23;20373;-76
2023/02/14 04:06:19;;;;;;;116.22;23.23;;;0.60;99.90;;;;;;6187640;23;20021;-76
2023/02/14 04:08:45;;;;;;;159.60;26.05;;;0.50;99.90;;;;;;6160800;23;20013;-76
2023/02/14 04:11:11;;;;;;;161.02;24.60;;;0.60;99.90;;;;;;6185923;23;20315;-76
2023/02/14 04:13:37;;;;;;;138.13;23.27;;;0.40;99.90;;;;;;6185607;23;20017;-75
2023/02/14 04:16:04;;;;;;;211.32;28.02;;;0.30;99.90;;;;;;6185712;23;20453;-75
2023/02/14 04:21:15;;;;;;;171.07;26.23;;;0.30;99.90;;;;;;6187431;23;20095;-76
2023/02/14 04:23:40;;;;;;;209.60;25.45;;;0.20;99.90;;;;;;6160869;23;20017;-76
2023/02/14 04:26:06;;;;;;;180.90;26.23;;;0.20;99.90;;;;;;6187375;23;20013;-76
2023/02/14 04:28:32;;;;;;;202.80;28.15;;;0.20;99.90;;;;;;6160873;23;20307;-76
2023/02/14 04:31:01;;;;;;;252.90;29.90;;;0.20;99.90;;;;;;6185532;23;20020;-76
2023/02/14 04:33:27;;;;;;;283.57;30.67;;;0.10;99.90;;;;;;6185990;23;20009;-76
2023/02/14 04:35:53;;;;;;;213.32;26.75;;;0.10;99.90;;;;;;6160405;23;20009;-76
2023/02/14 04:38:19;;;;;;;178.32;25.67;;;0.10;99.90;;;;;;6160553;23;20047;-76
2023/02/14 04:40:46;;;;;;;214.20;29.42;;;-0.20;99.90;;;;;;6185769;23;20017;-76
2023/02/14 04:43:12;;;;;;;158.32;23.48;;;-0.20;99.90;;;;;;6185287;23;20469;-75
2023/02/14 04:45:38;;;;;;;228.60;28.40;;;-0.20;99.90;;;;;;6160872;23;20009;-75
2023/02/14 04:48:03;;;;;;;244.98;28.65;;;0.00;99.90;;;;;;6186759;23;20013;-76
2023/02/14 04:50:29;;;;;;;80.22;22.40;;;-0.20;99.90;;;;;;6161216;23;20009;-75
2023/02/14 04:52:55;;;;;;;60.25;25.10;;;-0.10;99.90;;;;;;6160650;23;20431;-75
2023/02/14 04:55:20;;;;;;;53.72;26.17;;;0.10;99.90;;;;;;6184983;23;20009;-76
2023/02/14 04:57:46;;;;;;;49.70;26.75;;;0.20;99.90;;;;;;6185129;23;20447;-76
2023/02/14 05:00:12;;;;;;;58.33;29.15;;;0.40;99.90;;;;;;6186589;23;20024;-76
2023/02/14 05:02:38;;;;;;;54.85;28.08;;;0.50;99.90;;;;;;6186670;23;20065;-75
2023/02/14 05:05:04;;;;;;;57.90;30.88;;;0.70;99.90;;;;;;6187041;23;20013;-76
2023/02/14 05:07:29;;;;;;;71.32;33.88;;;0.70;99.90;;;;;;6185108;23;20097;-76
2023/02/14 05:09:55;;;;;;;70.70;33.45;;;0.80;99.90;;;;;;6160250;23;20341;-76
2023/02/14 05:12:20;;;;;;;64.80;31.88;;;0.90;99.90;;;;;;6160054;23;20009;-76
2023/02/14 05:14:46;;;;;;;67.35;32.97;;;1.10;99.90;;;;;;6186947;23;20009;-76
2023/02/14 05:17:12;;;;;;;77.63;33.67;;;1.10;99.90;;;;;;6160158;23;20473;-76
2023/02/14 05:19:37;;;;;;;85.18;34.30;;;1.30;99.90;;;;;;6159688;23;20027;-76
2023/02/14 05:22:03;;;;;;;75.28;33.65;;;1.20;99.90;;;;;;6186727;23;20020;-76
2023/02/14 05:24:29;;;;;;;109.68;33.63;;;1.30;99.90;;;;;;6184925;23;20009;-76
2023/02/14 05:26:54;;;;;;;103.03;33.10;;;1.50;99.90;;;;;;6184858;23;20016;-76
2023/02/14 05:29:20;;;;;;;77.10;31.17;;;1.40;99.90;;;;;;6184579;23;20017;-76
2023/02/14 05:31:46;;;;;;;82.72;30.42;;;1.40;99.90;;;;;;6186842;23;20071;-76
2023/02/14 05:34:11;;;;;;;87.53;33.22;;;1.50;99.90;;;;;;6184931;23;20339;-71
2023/02/14 05:36:37;;;;;;;91.97;31.13;;;1.60;99.90;;;;;;6186727;23;20346;-77
2023/02/14 05:39:03;;;;;;;122.47;36.10;;;1.50;99.90;;;;;;6185296;23;20009;-77
2023/02/14 05:41:29;;;;;;;94.45;32.67;;;1.70;99.90;;;;;;6186673;23;20091;-75
2023/02/14 05:43:55;;;;;;;88.88;31.63;;;1.70;99.90;;;;;;6186722;23;20017;-76
2023/02/14 05:46:20;;;;;;;117.63;35.88;;;1.60;99.90;;;;;;6184986;23;20350;-80
2023/02/14 05:48:46;;;;;;;71.45;32.97;;;1.60;99.90;;;;;;6185221;23;20071;-74
2023/02/14 05:51:12;;;;;;;65.18;31.30;;;1.50;99.90;;;;;;6184515;23;20327;-74
2023/02/14 05:53:38;;;;;;;70.30;31.35;;;1.80;99.90;;;;;;6186587;23;20009;-73
2023/02/14 05:56:04;;;;;;;71.78;33.63;;;1.80;99.90;;;;;;6186567;23;20096;-73
2023/02/14 05:58:30;;;;;;;69.25;33.30;;;1.80;99.90;;;;;;6184659;23;20398;-73
2023/02/14 06:00:57;;;;;;;72.63;35.60;;;1.60;99.90;;;;;;6184853;23;20339;-73
2023/02/14 06:03:22;;;;;;;75.78;36.97;;;1.70;99.90;;;;;;6184631;23;20017;-72
2023/02/14 06:05:48;;;;;;;71.68;34.45;;;1.60;99.90;;;;;;6186501;23;20016;-72
2023/02/14 06:08:14;;;;;;;75.55;36.00;;;1.70;99.90;;;;;;6186517;23;20017;-71
2023/02/14 06:10:39;;;;;;;69.38;34.47;;;1.60;99.90;;;;;;6184570;23;20021;-71
2023/02/14 06:13:07;;;;;;;82.28;37.63;;;1.60;99.90;;;;;;6186500;23;20012;-71
2023/02/14 06:15:34;;;;;;;76.32;36.95;;;1.60;99.90;;;;;;6186397;23;20013;-71
2023/02/14 06:18:00;;;;;;;76.63;36.25;;;1.80;99.90;;;;;;6186173;23;20020;-74
2023/02/14 06:20:26;;;;;;;76.78;37.00;;;1.60;99.90;;;;;;6184667;23;20013;-75
2023/02/14 06:22:52;;;;;;;78.78;37.42;;;1.80;99.90;;;;;;6186433;23;20013;-76
2023/02/14 06:25:19;;;;;;;68.20;35.30;;;1.60;99.90;;;;;;6159666;23;20048;-73
2023/02/14 06:27:45;;;;;;;71.55;35.88;;;1.60;99.90;;;;;;6184934;23;20017;-74
2023/02/14 06:30:12;;;;;;;71.07;36.85;;;1.70;99.90;;;;;;6184302;23;20017;-74
2023/02/14 06:32:37;;;;;;;78.85;38.17;;;1.60;99.90;;;;;;6184834;23;20021;-74
2023/02/14 06:35:04;;;;;;;77.43;37.20;;;1.90;99.90;;;;;;6159694;23;20009;-74
2023/02/14 06:37:29;;;;;;;75.68;36.90;;;1.80;99.90;;;;;;6186598;23;20303;-74
2023/02/14 06:39:55;;;;;;;77.55;36.40;;;1.70;99.90;;;;;;6184752;23;20091;-75
2023/02/14 06:42:21;;;;;;;79.53;38.20;;;1.60;99.90;;;;;;6184721;23;20021;-75
2023/02/14 06:44:46;;;;;;;82.63;38.90;;;1.60;99.90;;;;;;6184745;23;20084;-75
2023/02/14 06:47:12;;;;;;;74.35;37.33;;;1.70;99.90;;;;;;6186747;23;20373;-75
2023/02/14 06:49:38;;;;;;;77.40;37.42;;;1.70;99.90;;;;;;6184497;23;20056;-73
2023/02/14 06:52:04;;;;;;;67.47;37.22;;;1.80;99.90;;;;;;6186532;23;20009;-76
2023/02/14 06:54:30;;;;;;;74.15;38.15;;;1.70;99.90;;;;;;6186192;23;20111;-76
2023/02/14 06:56:56;;;;;;;70.53;34.35;;;1.70;99.90;;;;;;6184493;23;20434;-75
2023/02/14 06:59:21;;;;;;;66.18;33.60;;;1.70;99.90;;;;;;6184475;23;20447;-75
2023/02/14 07:01:47;;;;;;;72.70;34.70;;;1.60;99.90;;;;;;6160049;23;20320;-74
2023/02/14 07:04:13;;;;;;;77.30;34.40;;;1.60;99.90;;;;;;6186288;23;20344;-74
2023/02/14 07:06:39;;;;;;;75.38;33.22;;;1.60;99.90;;;;;;6188100;23;20009;-73
2023/02/14 07:09:04;;;;;;;71.38;33.88;;;1.50;99.90;;;;;;6186306;23;20064;-73
2023/02/14 07:11:31;;;;;;;61.50;33.28;;;1.50;99.90;;;;;;6161418;23;20021;-73
2023/02/14 07:13:56;;;;;;;86.57;35.00;;;1.60;99.90;;;;;;6186244;23;20013;-73
2023/02/14 07:16:22;;;;;;;74.40;32.55;;;1.70;99.90;;;;;;6186302;23;20013;-73
2023/02/14 07:18:48;;;;;;;69.22;31.63;;;1.50;99.90;;;;;;6188963;23;20016;-73
2023/02/14 07:21:13;;;;;;;55.70;30.83;;;1.50;99.90;;;;;;6186611;23;20080;-74
2023/02/14 07:23:39;;;;;;;68.35;32.10;;;1.50;99.90;;;;;;6187998;23;20080;-74
2023/02/14 07:26:04;;;;;;;56.53;30.40;;;1.70;99.90;;;;;;6187514;23;20017;-74
2023/02/14 07:28:32;;;;;;;53.72;30.83;;;1.50;99.90;;;;;;6187863;23;20019;-73
2023/02/14 07:30:59;;;;;;;62.55;31.90;;;1.40;99.90;;;;;;6187285;23;20021;-74
2023/02/14 07:33:25;;;;;;;59.53;29.70;;;1.60;99.90;;;;;;6187988;23;20049;-73
2023/02/14 07:35:51;;;;;;;53.65;29.17;;;1.50;99.90;;;;;;6187859;23;20306;-73
2023/02/14 07:38:17;;;;;;;81.55;33.00;;;1.50;99.90;;;;;;6187826;23;20056;-73
2023/02/14 07:40:42;;;;;;;55.47;29.33;;;1.60;99.90;;;;;;6185989;23;20066;-74
2023/02/14 07:43:08;;;;;;;60.67;30.63;;;1.60;99.90;;;;;;6186421;23;20041;-73
2023/02/14 07:45:34;;;;;;;56.17;28.15;;;1.60;99.90;;;;;;6187770;23;20024;-73
2023/02/14 07:48:01;;;;;;;66.75;29.52;;;1.60;99.90;;;;;;6187860;23;20013;-73
2023/02/14 07:50:27;;;;;;;53.80;28.95;;;1.50;99.90;;;;;;6187654;23;20081;-72
2023/02/14 07:52:54;;;;;;;96.25;37.55;;;1.40;99.90;;;;;;6187684;23;20009;-72
2023/02/14 07:55:21;;;;;;;54.25;32.15;;;1.30;99.90;;;;;;6187608;23;20033;-72
2023/02/14 07:57:48;;;;;;;56.70;31.83;;;1.50;99.90;;;;;;6187675;23;20135;-72
2023/02/14 08:00:14;;;;;;;73.10;31.48;;;1.30;99.90;;;;;;6187505;23;20020;-72
2023/02/14 08:02:40;;;;;;;87.78;30.77;;;1.50;99.90;;;;;;6187370;23;20509;-72
2023/02/14 08:05:06;;;;;;;69.20;29.08;;;1.40;99.90;;;;;;6185750;23;20073;-72
2023/02/14 08:07:31;;;;;;;53.92;27.27;;;1.20;99.90;;;;;;6187639;23;20009;-72
2023/02/14 08:09:57;;;;;;;81.28;28.70;;;1.40;99.90;;;;;;6187500;23;20075;-72
2023/02/14 08:17:51;;;;;;;68.45;28.42;;;1.40;99.90;;;;;;6187599;23;20017;-72
2023/02/14 08:20:17;;;;;;;94.03;32.60;;;1.20;99.90;;;;;;6187418;23;20023;-72
2023/02/14 08:22:43;;;;;;;96.70;31.92;;;1.20;99.90;;;;;;6185607;23;20386;-72
2023/02/14 08:25:08;;;;;;;118.32;34.25;;;1.30;99.90;;;;;;6187349;23;20084;-72
2023/02/14 08:27:34;;;;;;;132.90;35.13;;;1.30;99.90;;;;;;6187359;23;20089;-72
2023/02/14 08:30:00;;;;;;;102.72;33.40;;;1.20;99.90;;;;;;6186649;23;20068;-72
2023/02/14 08:32:25;;;;;;;55.13;29.27;;;1.50;99.90;;;;;;6187517;23;20084;-72
2023/02/14 08:34:51;;;;;;;85.43;33.33;;;1.30;99.90;;;;;;6187327;23;20013;-70
2023/02/14 08:37:16;;;;;;;99.22;34.75;;;1.60;99.90;;;;;;6185504;23;20013;-70
2023/02/14 08:39:42;;;;;;;84.68;35.25;;;1.40;99.90;;;;;;6187306;23;20013;-70
2023/02/14 08:42:08;;;;;;;62.25;33.42;;;1.70;99.90;;;;;;6160596;23;20331;-70
2023/02/14 08:44:33;;;;;;;62.05;33.95;;;1.60;99.90;;;;;;6185366;23;20048;-70
2023/02/14 08:46:59;;;;;;;75.15;33.90;;;1.70;99.90;;;;;;6187308;23;20063;-70
2023/02/14 08:49:24;;;;;;;52.65;30.60;;;1.60;99.90;;;;;;6160403;23;20021;-70
2023/02/14 08:51:50;;;;;;;59.60;33.95;;;1.90;99.90;;;;;;6186941;23;20021;-70
2023/02/14 08:54:16;;;;;;;54.60;33.55;;;1.90;99.90;;;;;;6187104;23;20322;-70
2023/02/14 08:56:41;;;;;;;58.28;35.40;;;2.10;99.90;;;;;;6185203;23;20450;-70
2023/02/14 08:59:07;;;;;;;55.85;33.72;;;2.10;99.90;;;;;;6185119;23;20037;-70
2023/02/14 09:01:32;;;;;;;58.00;34.92;;;2.20;99.90;;;;;;6186833;23;20017;-70
2023/02/14 09:03:58;;;;;;;58.40;36.05;;;2.20;99.90;;;;;;6185162;23;20017;-70
2023/02/14 09:06:25;;;;;;;57.50;36.17;;;2.50;99.90;;;;;;6185105;23;20032;-70
2023/02/14 09:08:52;;;;;;;54.35;34.83;;;2.50;99.90;;;;;;6185121;23;20090;-70
2023/02/14 09:11:20;;;;;;;62.42;38.92;;;2.50;99.90;;;;;;6160202;23;20017;-70
2023/02/14 09:13:47;;;;;;;56.78;36.88;;;2.70;99.90;;;;;;6186880;23;20013;-70
2023/02/14 09:16:16;;;;;;;61.25;38.55;;;2.70;99.90;;;;;;6185083;23;20083;-70
2023/02/14 09:18:42;;;;;;;62.75;38.30;;;3.00;99.90;;;;;;6160199;23;20020;-70
2023/02/14 09:21:19;;;;;;;61.85;36.78;;;3.00;99.90;;;;;;6184982;23;20028;-70
2023/02/14 09:23:45;;;;;;;54.67;35.20;;;3.00;99.90;;;;;;6186739;23;20028;-70
2023/02/14 09:26:14;;;;;;;51.38;35.38;;;3.40;99.90;;;;;;6184012;23;20342;-70
2023/02/14 09:28:39;;;;;;;51.88;34.90;;;3.30;99.90;;;;;;6186567;23;20013;-70
2023/02/14 09:31:12;;;;;;;55.20;36.78;;;3.70;99.90;;;;;;6186213;23;20021;-71
2023/02/14 09:33:39;;;;;;;56.47;37.42;;;3.80;99.90;;;;;;6187047;23;20017;-70
2023/02/14 09:36:10;;;;;;;53.17;35.95;;;3.80;99.90;;;;;;6185153;23;20005;-70
2023/02/14 09:38:36;;;;;;;52.78;36.05;;;4.20;99.90;;;;;;6187033;23;20060;-70
2023/02/14 09:41:07;;;;;;;54.50;36.53;;;4.10;99.90;;;;;;6186580;23;20017;-70
2023/02/14 09:43:50;;;;;;;47.17;34.42;;;4.40;99.90;;;;;;6185073;23;20020;-70
2023/02/14 09:46:17;;;;;;;47.30;34.75;;;4.40;99.90;;;;;;6185120;23;20016;-70
2023/02/14 09:48:47;;;;;;;47.50;34.65;;;4.70;99.90;;;;;;6185423;23;20012;-70
2023/02/14 09:51:22;;;;;;;49.38;34.70;;;4.70;99.90;;;;;;6186489;23;20021;-70
2023/02/14 09:53:56;;;;;;;42.65;32.65;;;5.00;99.90;;;;;;6185400;23;20017;-69
2023/02/14 09:56:48;;;;;;;46.50;32.97;;;5.20;99.90;;;;;;6184916;23;20013;-69
2023/02/14 09:59:49;;;;;;;45.05;32.22;;;5.40;99.90;;;;;;6185037;23;20020;-70
2023/02/14 10:02:48;;;;;;;40.63;30.27;;;5.70;99.90;;;;;;6159299;23;20120;-70
2023/02/14 10:05:23;;;;;;;39.90;30.17;;;5.70;99.90;;;;;;6186582;23;20005;-70
2023/02/14 10:08:10;;;;;;;39.60;29.75;;;5.90;99.90;;;;;;6186603;23;20052;-70
2023/02/14 10:10:45;;;;;;;38.33;28.60;;;6.00;99.90;;;;;;6186476;23;20013;-70
2023/02/14 10:13:22;;;;;;;35.13;27.08;;;6.20;99.90;;;;;;6186038;23;20084;-70
2023/02/14 10:16:08;;;;;;;33.63;26.02;;;6.40;99.90;;;;;;6184656;23;20020;-69
2023/02/14 10:18:42;;;;;;;36.33;28.70;;;6.60;99.90;;;;;;6184856;23;20013;-70
2023/02/14 10:21:14;;;;;;;36.10;28.08;;;6.70;99.90;;;;;;6186387;23;20013;-70
2023/02/14 10:23:48;;;;;;;36.53;27.95;;;6.80;99.90;;;;;;6184679;23;20009;-70
2023/02/14 10:26:38;;;;;;;34.45;27.20;;;6.80;99.90;;;;;;6186402;23;20009;-69
2023/02/14 10:29:16;;;;;;;38.85;28.58;;;6.80;99.90;;;;;;6185811;23;20469;-70
2023/02/14 10:31:54;;;;;;;38.45;28.40;;;6.90;99.90;;;;;;6184734;23;20025;-70
2023/02/14 10:34:37;;;;;;;38.95;28.55;;;7.10;99.90;;;;;;6185061;23;20017;-70
2023/02/14 10:37:09;;;;;;;38.25;28.92;;;7.10;99.90;;;;;;6187878;23;20024;-70
2023/02/14 10:39:47;;;;;;;41.42;31.17;;;7.20;99.90;;;;;;6188480;23;20010;-70
2023/02/14 10:42:12;;;;;;;40.47;30.63;;;7.30;99.90;;;;;;6188461;23;20500;-70
2023/02/14 10:44:54;;;;;;;39.85;29.73;;;7.40;99.90;;;;;;6188318;23;20017;-70
2023/02/14 10:47:35;;;;;;;39.30;28.65;;;7.40;99.90;;;;;;6189121;23;20318;-70
2023/02/14 10:50:22;;;;;;;40.72;30.40;;;7.40;99.90;;;;;;6188290;23;20070;-70
2023/02/14 10:53:11;;;;;;;37.25;28.88;;;7.50;99.90;;;;;;6188353;23;20017;-70
2023/02/14 10:55:57;;;;;;;41.90;31.17;;;7.60;99.90;;;;;;6188021;23;20013;-70
2023/02/14 10:58:27;;;;;;;41.85;29.27;;;7.60;99.90;;;;;;6188323;23;20013;-70
2023/02/14 11:01:12;;;;;;;42.60;31.05;;;7.80;99.90;;;;;;6186448;23;20339;-70
2023/02/14 11:03:40;;;;;;;38.38;29.10;;;7.80;99.90;;;;;;6186545;23;20059;-69
2023/02/14 11:06:08;;;;;;;37.75;28.23;;;7.90;99.90;;;;;;6188084;23;20084;-69
2023/02/14 11:08:39;;;;;;;36.63;28.42;;;8.00;99.90;;;;;;6187806;23;20009;-69
2023/02/14 11:11:29;;;;;;;39.25;29.40;;;7.90;99.90;;;;;;6186675;23;20013;-70
2023/02/14 11:13:54;;;;;;;37.40;28.43;;;8.00;99.90;;;;;;6186417;23;20071;-70
2023/02/14 11:16:33;;;;;;;34.38;27.13;;;8.20;99.90;;;;;;6188057;23;20060;-70
2023/02/14 11:19:14;;;;;;;36.75;28.85;;;8.30;99.90;;;;;;6186124;23;20020;-70
2023/02/14 11:21:42;;;;;;;39.42;27.55;;;8.40;99.90;;;;;;6186224;23;20036;-70
2023/02/14 11:24:32;;;;;;;34.70;27.05;;;8.60;99.90;;;;;;6188224;23;20063;-70
2023/02/14 11:27:13;;;;;;;36.55;28.05;;;8.80;99.90;;;;;;6187885;23;20013;-71
2023/02/14 11:29:51;;;;;;;34.22;27.05;;;8.90;99.90;;;;;;6187916;23;20071;-70
2023/02/14 11:32:29;;;;;;;37.60;28.20;;;9.00;99.90;;;;;;6188412;23;20021;-70
2023/02/14 11:35:04;;;;;;;36.28;27.40;;;9.10;99.90;;;;;;6187517;23;20013;-70
2023/02/14 11:37:38;;;;;;;36.97;27.80;;;9.10;99.90;;;;;;6187917;23;20024;-72
2023/02/14 11:40:04;;;;;;;38.67;27.42;;;9.30;99.90;;;;;;6187922;23;20024;-71
2023/02/14 11:42:43;;;;;;;35.42;27.45;;;9.50;99.90;;;;;;6161135;23;20013;-71
2023/02/14 11:45:27;;;;;;;34.25;26.55;;;9.70;99.90;;;;;;6188074;23;20017;-71
2023/02/14 11:48:22;;;;;;;32.05;26.38;;;9.90;99.90;;;;;;6187517;23;20017;-71
2023/02/14 11:51:03;;;;;;;34.20;26.20;;;10.00;99.90;;;;;;6185768;23;20016;-71
2023/02/14 11:53:42;;;;;;;32.13;25.23;;;10.10;99.90;;;;;;6187844;23;20351;-71
2023/02/14 11:56:08;;;;;;;33.63;25.65;;;10.30;99.90;;;;;;6187733;23;20013;-71
2023/02/14 11:59:02;;;;;;;32.15;25.60;;;10.40;99.90;;;;;;6160990;23;20019;-71
2023/02/14 12:01:34;;;;;;;34.10;26.42;;;10.50;99.90;;;;;;6175760;23;20019;-71
2023/02/14 12:04:12;;;;;;;30.92;25.40;;;10.50;99.90;;;;;;6187779;23;20063;-71
2023/02/14 12:06:38;;;;;;;36.17;27.63;;;10.60;99.90;;;;;;6187172;23;20049;-71
2023/02/14 12:09:22;;;;;;;35.75;27.08;;;10.80;99.90;;;;;;6187577;23;20024;-71
2023/02/14 12:11:58;;;;;;;34.80;26.58;;;10.80;99.90;;;;;;6187215;23;20071;-71
2023/02/14 12:14:27;;;;;;;38.30;28.50;;;11.00;99.90;;;;;;6187493;23;20012;-71
2023/02/14 12:17:14;;;;;;;41.15;29.67;;;11.10;99.90;;;;;;6160992;23;20005;-71
2023/02/14 12:20:07;;;;;;;35.15;26.58;;;11.20;99.90;;;;;;6187380;23;20020;-71
2023/02/14 12:22:40;;;;;;;36.00;27.80;;;11.30;99.90;;;;;;6187562;23;20005;-71
2023/02/14 12:25:32;;;;;;;39.22;29.05;;;11.40;99.90;;;;;;6187403;23;20017;-71
2023/02/14 12:28:06;;;;;;;41.28;30.58;;;11.50;99.90;;;;;;6186861;23;20024;-71
2023/02/14 12:30:33;;;;;;;35.85;26.90;;;11.60;99.90;;;;;;6186744;23;20017;-71
2023/02/14 12:33:00;;;;;;;36.88;27.33;;;11.70;99.90;;;;;;6187511;23;20013;-71
2023/02/14 12:36:01;;;;;;;34.88;27.80;;;11.90;99.90;;;;;;6185478;23;20016;-71
2023/02/14 12:38:35;;;;;;;34.60;28.02;;;12.10;99.90;;;;;;6185564;23;20017;-71
2023/02/14 12:41:21;;;;;;;34.72;28.17;;;12.20;99.90;;;;;;6187329;23;20072;-71
2023/02/14 12:44:04;;;;;;;36.70;28.73;;;12.30;99.90;;;;;;6185517;23;20343;-74
2023/02/14 12:46:46;;;;;;;31.17;25.98;;;12.50;99.90;;;;;;6185431;23;20013;-73
2023/02/14 12:49:17;;;;;;;34.13;26.65;;;12.60;99.90;;;;;;6185498;23;20342;-73
2023/02/14 12:51:55;;;;;;;31.45;25.73;;;12.70;99.90;;;;;;6187072;23;20013;-70
2023/02/14 12:54:39;;;;;;;31.05;26.00;;;12.90;99.90;;;;;;6185282;23;20076;-70
2023/02/14 12:57:16;;;;;;;33.83;26.35;;;13.00;99.90;;;;;;6187254;23;20335;-70
2023/02/14 12:59:53;;;;;;;31.45;25.45;;;13.20;99.90;;;;;;6185387;23;20045;-70
2023/02/14 13:02:56;;;;;;;29.30;24.60;;;13.20;99.90;;;;;;6187379;23;20011;-70
2023/02/14 13:05:28;;;;;;;29.75;25.33;;;13.30;99.90;;;;;;6187177;23;20038;-70
2023/02/14 13:08:39;;;;;;;30.90;25.88;;;13.50;99.90;;;;;;6186857;23;20009;-71
2023/02/14 13:11:29;;;;;;;29.27;25.13;;;13.80;99.90;;;;;;6187197;23;20374;-70
2023/02/14 13:14:15;;;;;;;29.80;25.88;;;14.20;99.90;;;;;;6185889;23;20028;-70
2023/02/14 13:17:26;;;;;;;28.20;24.58;;;14.70;99.90;;;;;;6187326;23;20032;-70